sensor_id;sensor_type;location;lat;lon;timestamp;P1;durP1;ratioP1;P2;durP2;ratioP2
70247;SDS011;57641;51.416;5.506;2022-08-01T00:00:27;10.68;;;6.07;;
70247;SDS011;57641;51.416;5.506;2022-08-01T00:02:52;8.52;;;5.38;;
70247;SDS011;57641;51.416;5.506;2022-08-01T00:05:18;6.60;;;5.38;;
70247;SDS011;57641;51.416;5.506;2022-08-01T00:07:44;9.32;;;5.93;;
70247;SDS011;57641;51.416;5.506;2022-08-01T00:10:11;12.50;;;5.78;;
70247;SDS011;57641;51.416;5.506;2022-08-01T00:12:38;7.47;;;5.35;;
70247;SDS011;57641;51.416;5.506;2022-08-01T00:15:06;9.55;;;5.68;;
70247;SDS011;57641;51.416;5.506;2022-08-01T00:17:34;8.80;;;5.43;;
70247;SDS011;57641;51.416;5.506;2022-08-01T00:19:59;9.55;;;5.40;;
70247;SDS011;57641;51.416;5.506;2022-08-01T00:22:27;8.73;;;6.22;;
70247;SDS011;57641;51.416;5.506;2022-08-01T00:24:53;13.00;;;6.75;;
70247;SDS011;57641;51.416;5.506;2022-08-01T00:27:18;10.68;;;7.13;;
70247;SDS011;57641;51.416;5.506;2022-08-01T00:29:43;10.93;;;6.45;;
70247;SDS011;57641;51.416;5.506;2022-08-01T00:32:09;10.68;;;6.68;;
70247;SDS011;57641;51.416;5.506;2022-08-01T00:34:34;12.55;;;7.38;;
70247;SDS011;57641;51.416;5.506;2022-08-01T00:37:00;17.65;;;7.65;;
70247;SDS011;57641;51.416;5.506;2022-08-01T00:39:25;13.13;;;7.80;;
70247;SDS011;57641;51.416;5.506;2022-08-01T00:41:51;15.15;;;8.07;;
70247;SDS011;57641;51.416;5.506;2022-08-01T00:44:16;13.57;;;7.28;;
70247;SDS011;57641;51.416;5.506;2022-08-01T00:46:42;11.80;;;6.97;;
70247;SDS011;57641;51.416;5.506;2022-08-01T00:49:07;11.73;;;7.15;;
70247;SDS011;57641;51.416;5.506;2022-08-01T00:51:33;13.23;;;7.60;;
70247;SDS011;57641;51.416;5.506;2022-08-01T00:53:59;14.63;;;7.55;;
70247;SDS011;57641;51.416;5.506;2022-08-01T00:56:25;12.50;;;7.75;;
70247;SDS011;57641;51.416;5.506;2022-08-01T00:58:53;21.27;;;8.75;;
70247;SDS011;57641;51.416;5.506;2022-08-01T01:01:20;13.65;;;8.50;;
70247;SDS011;57641;51.416;5.506;2022-08-01T01:03:49;16.58;;;8.00;;
70247;SDS011;57641;51.416;5.506;2022-08-01T01:08:55;14.55;;;9.63;;
70247;SDS011;57641;51.416;5.506;2022-08-01T01:12:17;17.95;;;9.68;;
70247;SDS011;57641;51.416;5.506;2022-08-01T01:14:27;15.10;;;8.13;;
70247;SDS011;57641;51.416;5.506;2022-08-01T01:16:59;20.85;;;9.18;;
70247;SDS011;57641;51.416;5.506;2022-08-01T01:19:28;15.20;;;8.35;;
70247;SDS011;57641;51.416;5.506;2022-08-01T01:22:08;15.07;;;8.38;;
70247;SDS011;57641;51.416;5.506;2022-08-01T01:30:35;19.33;;;10.45;;
70247;SDS011;57641;51.416;5.506;2022-08-01T01:33:05;18.40;;;10.10;;
70247;SDS011;57641;51.416;5.506;2022-08-01T01:35:36;19.10;;;9.45;;
70247;SDS011;57641;51.416;5.506;2022-08-01T01:38:24;15.02;;;8.80;;
70247;SDS011;57641;51.416;5.506;2022-08-01T01:40:53;17.08;;;9.77;;
70247;SDS011;57641;51.416;5.506;2022-08-01T01:43:20;19.42;;;10.30;;
70247;SDS011;57641;51.416;5.506;2022-08-01T01:45:48;18.15;;;10.25;;
70247;SDS011;57641;51.416;5.506;2022-08-01T01:48:15;21.48;;;11.13;;
70247;SDS011;57641;51.416;5.506;2022-08-01T01:50:44;21.77;;;11.05;;
70247;SDS011;57641;51.416;5.506;2022-08-01T01:53:12;17.88;;;10.48;;
70247;SDS011;57641;51.416;5.506;2022-08-01T01:55:39;19.42;;;10.68;;
70247;SDS011;57641;51.416;5.506;2022-08-01T01:58:06;20.75;;;11.00;;
70247;SDS011;57641;51.416;5.506;2022-08-01T02:00:34;18.33;;;9.93;;
70247;SDS011;57641;51.416;5.506;2022-08-01T02:03:03;21.70;;;11.13;;
70247;SDS011;57641;51.416;5.506;2022-08-01T02:05:32;22.92;;;12.55;;
70247;SDS011;57641;51.416;5.506;2022-08-01T02:08:01;17.95;;;11.23;;
70247;SDS011;57641;51.416;5.506;2022-08-01T02:10:28;20.92;;;12.13;;
70247;SDS011;57641;51.416;5.506;2022-08-01T02:12:56;25.65;;;12.15;;
70247;SDS011;57641;51.416;5.506;2022-08-01T02:15:24;21.10;;;11.85;;
70247;SDS011;57641;51.416;5.506;2022-08-01T02:17:51;23.65;;;13.65;;
70247;SDS011;57641;51.416;5.506;2022-08-01T02:20:19;22.13;;;12.55;;
70247;SDS011;57641;51.416;5.506;2022-08-01T02:22:49;24.77;;;12.73;;
70247;SDS011;57641;51.416;5.506;2022-08-01T02:25:22;20.80;;;12.27;;
70247;SDS011;57641;51.416;5.506;2022-08-01T02:30:37;24.35;;;12.88;;
70247;SDS011;57641;51.416;5.506;2022-08-01T02:33:16;25.50;;;14.05;;
70247;SDS011;57641;51.416;5.506;2022-08-01T02:35:50;20.15;;;11.55;;
70247;SDS011;57641;51.416;5.506;2022-08-01T02:38:20;19.50;;;11.80;;
70247;SDS011;57641;51.416;5.506;2022-08-01T02:40:48;23.58;;;12.52;;
70247;SDS011;57641;51.416;5.506;2022-08-01T02:43:18;24.13;;;12.40;;
70247;SDS011;57641;51.416;5.506;2022-08-01T02:45:47;19.88;;;12.43;;
70247;SDS011;57641;51.416;5.506;2022-08-01T02:48:17;22.27;;;11.93;;
70247;SDS011;57641;51.416;5.506;2022-08-01T02:50:45;18.00;;;11.30;;
70247;SDS011;57641;51.416;5.506;2022-08-01T02:53:13;23.38;;;12.85;;
70247;SDS011;57641;51.416;5.506;2022-08-01T02:55:42;21.15;;;11.15;;
70247;SDS011;57641;51.416;5.506;2022-08-01T02:58:13;23.63;;;11.57;;
70247;SDS011;57641;51.416;5.506;2022-08-01T03:00:41;25.58;;;12.68;;
70247;SDS011;57641;51.416;5.506;2022-08-01T03:03:11;23.58;;;11.48;;
70247;SDS011;57641;51.416;5.506;2022-08-01T03:05:38;20.67;;;11.57;;
70247;SDS011;57641;51.416;5.506;2022-08-01T03:08:05;19.50;;;10.48;;
70247;SDS011;57641;51.416;5.506;2022-08-01T03:10:33;23.45;;;11.13;;
70247;SDS011;57641;51.416;5.506;2022-08-01T03:13:02;22.58;;;11.98;;
70247;SDS011;57641;51.416;5.506;2022-08-01T03:15:31;23.67;;;12.25;;
70247;SDS011;57641;51.416;5.506;2022-08-01T03:17:59;26.27;;;12.65;;
70247;SDS011;57641;51.416;5.506;2022-08-01T03:20:26;20.25;;;11.05;;
70247;SDS011;57641;51.416;5.506;2022-08-01T03:22:53;22.80;;;11.63;;
70247;SDS011;57641;51.416;5.506;2022-08-01T03:25:20;25.15;;;11.95;;
70247;SDS011;57641;51.416;5.506;2022-08-01T03:27:51;22.05;;;11.60;;
70247;SDS011;57641;51.416;5.506;2022-08-01T03:30:25;25.13;;;13.10;;
70247;SDS011;57641;51.416;5.506;2022-08-01T03:32:52;23.85;;;11.80;;
70247;SDS011;57641;51.416;5.506;2022-08-01T03:35:18;21.00;;;10.98;;
70247;SDS011;57641;51.416;5.506;2022-08-01T03:37:46;28.30;;;13.52;;
70247;SDS011;57641;51.416;5.506;2022-08-01T03:40:23;24.45;;;12.88;;
70247;SDS011;57641;51.416;5.506;2022-08-01T03:42:58;23.02;;;12.00;;
70247;SDS011;57641;51.416;5.506;2022-08-01T03:45:30;22.95;;;12.15;;
70247;SDS011;57641;51.416;5.506;2022-08-01T03:48:01;22.00;;;11.38;;
70247;SDS011;57641;51.416;5.506;2022-08-01T03:50:30;23.20;;;12.05;;
70247;SDS011;57641;51.416;5.506;2022-08-01T03:52:59;21.40;;;11.50;;
70247;SDS011;57641;51.416;5.506;2022-08-01T03:55:26;25.65;;;13.27;;
70247;SDS011;57641;51.416;5.506;2022-08-01T03:57:52;25.40;;;12.50;;
70247;SDS011;57641;51.416;5.506;2022-08-01T04:00:18;20.95;;;11.48;;
70247;SDS011;57641;51.416;5.506;2022-08-01T04:02:45;17.33;;;10.60;;
70247;SDS011;57641;51.416;5.506;2022-08-01T04:05:12;20.88;;;11.43;;
70247;SDS011;57641;51.416;5.506;2022-08-01T04:07:39;20.00;;;10.68;;
70247;SDS011;57641;51.416;5.506;2022-08-01T04:10:05;20.80;;;11.48;;
70247;SDS011;57641;51.416;5.506;2022-08-01T04:12:31;21.88;;;11.75;;
70247;SDS011;57641;51.416;5.506;2022-08-01T04:14:58;20.90;;;11.10;;
70247;SDS011;57641;51.416;5.506;2022-08-01T04:17:24;19.73;;;10.25;;
70247;SDS011;57641;51.416;5.506;2022-08-01T04:19:50;21.35;;;11.30;;
70247;SDS011;57641;51.416;5.506;2022-08-01T04:22:15;22.98;;;11.55;;
70247;SDS011;57641;51.416;5.506;2022-08-01T04:24:42;22.67;;;11.18;;
70247;SDS011;57641;51.416;5.506;2022-08-01T04:27:14;17.05;;;9.90;;
70247;SDS011;57641;51.416;5.506;2022-08-01T04:29:44;21.30;;;10.10;;
70247;SDS011;57641;51.416;5.506;2022-08-01T04:32:13;21.10;;;10.63;;
70247;SDS011;57641;51.416;5.506;2022-08-01T04:34:41;23.00;;;11.00;;
70247;SDS011;57641;51.416;5.506;2022-08-01T04:37:11;18.55;;;10.02;;
70247;SDS011;57641;51.416;5.506;2022-08-01T04:39:37;15.60;;;8.88;;
70247;SDS011;57641;51.416;5.506;2022-08-01T04:42:06;20.15;;;10.88;;
70247;SDS011;57641;51.416;5.506;2022-08-01T04:44:32;20.05;;;10.70;;
70247;SDS011;57641;51.416;5.506;2022-08-01T04:46:59;20.15;;;10.27;;
70247;SDS011;57641;51.416;5.506;2022-08-01T04:49:29;25.30;;;11.93;;
70247;SDS011;57641;51.416;5.506;2022-08-01T04:51:56;18.30;;;9.85;;
70247;SDS011;57641;51.416;5.506;2022-08-01T04:54:26;19.30;;;10.30;;
70247;SDS011;57641;51.416;5.506;2022-08-01T04:56:53;21.50;;;10.45;;
70247;SDS011;57641;51.416;5.506;2022-08-01T04:59:23;21.25;;;10.95;;
70247;SDS011;57641;51.416;5.506;2022-08-01T05:04:39;23.25;;;11.63;;
70247;SDS011;57641;51.416;5.506;2022-08-01T05:07:06;23.38;;;11.85;;
70247;SDS011;57641;51.416;5.506;2022-08-01T05:09:32;23.77;;;12.90;;
70247;SDS011;57641;51.416;5.506;2022-08-01T05:11:59;24.42;;;12.10;;
70247;SDS011;57641;51.416;5.506;2022-08-01T05:14:26;21.98;;;10.93;;
70247;SDS011;57641;51.416;5.506;2022-08-01T05:16:53;24.27;;;11.60;;
70247;SDS011;57641;51.416;5.506;2022-08-01T05:19:19;20.00;;;11.38;;
70247;SDS011;57641;51.416;5.506;2022-08-01T05:21:45;22.38;;;11.38;;
70247;SDS011;57641;51.416;5.506;2022-08-01T05:24:11;22.45;;;11.73;;
70247;SDS011;57641;51.416;5.506;2022-08-01T05:26:38;21.90;;;11.10;;
70247;SDS011;57641;51.416;5.506;2022-08-01T05:29:04;23.20;;;11.30;;
70247;SDS011;57641;51.416;5.506;2022-08-01T05:31:29;23.52;;;11.25;;
70247;SDS011;57641;51.416;5.506;2022-08-01T05:33:57;21.75;;;11.07;;
70247;SDS011;57641;51.416;5.506;2022-08-01T05:36:23;18.95;;;11.05;;
70247;SDS011;57641;51.416;5.506;2022-08-01T05:38:48;19.70;;;10.57;;
70247;SDS011;57641;51.416;5.506;2022-08-01T05:41:14;20.85;;;11.02;;
70247;SDS011;57641;51.416;5.506;2022-08-01T05:43:42;24.00;;;12.27;;
70247;SDS011;57641;51.416;5.506;2022-08-01T05:46:07;22.23;;;11.27;;
70247;SDS011;57641;51.416;5.506;2022-08-01T05:48:33;18.27;;;10.70;;
70247;SDS011;57641;51.416;5.506;2022-08-01T05:50:58;17.35;;;10.10;;
70247;SDS011;57641;51.416;5.506;2022-08-01T05:53:24;16.17;;;8.82;;
70247;SDS011;57641;51.416;5.506;2022-08-01T05:55:49;25.65;;;10.43;;
70247;SDS011;57641;51.416;5.506;2022-08-01T05:58:14;20.05;;;11.48;;
70247;SDS011;57641;51.416;5.506;2022-08-01T06:00:40;17.77;;;10.32;;
70247;SDS011;57641;51.416;5.506;2022-08-01T06:03:06;16.05;;;8.98;;
70247;SDS011;57641;51.416;5.506;2022-08-01T06:05:31;21.95;;;10.23;;
70247;SDS011;57641;51.416;5.506;2022-08-01T06:07:57;19.23;;;11.15;;
70247;SDS011;57641;51.416;5.506;2022-08-01T06:10:23;23.15;;;10.98;;
70247;SDS011;57641;51.416;5.506;2022-08-01T06:12:49;15.35;;;9.50;;
70247;SDS011;57641;51.416;5.506;2022-08-01T06:15:16;18.17;;;10.35;;
70247;SDS011;57641;51.416;5.506;2022-08-01T06:17:42;18.08;;;10.05;;
70247;SDS011;57641;51.416;5.506;2022-08-01T06:20:07;21.50;;;11.48;;
70247;SDS011;57641;51.416;5.506;2022-08-01T06:22:33;18.45;;;10.27;;
70247;SDS011;57641;51.416;5.506;2022-08-01T06:24:59;17.83;;;9.85;;
70247;SDS011;57641;51.416;5.506;2022-08-01T06:27:24;31.63;;;12.48;;
70247;SDS011;57641;51.416;5.506;2022-08-01T06:29:51;17.85;;;9.77;;
70247;SDS011;57641;51.416;5.506;2022-08-01T06:32:18;19.60;;;9.93;;
70247;SDS011;57641;51.416;5.506;2022-08-01T06:34:44;19.00;;;10.43;;
70247;SDS011;57641;51.416;5.506;2022-08-01T06:37:10;16.67;;;9.13;;
70247;SDS011;57641;51.416;5.506;2022-08-01T06:39:38;12.93;;;6.40;;
70247;SDS011;57641;51.416;5.506;2022-08-01T06:42:03;6.68;;;4.13;;
70247;SDS011;57641;51.416;5.506;2022-08-01T06:44:29;5.80;;;3.30;;
70247;SDS011;57641;51.416;5.506;2022-08-01T06:46:54;6.20;;;3.33;;
70247;SDS011;57641;51.416;5.506;2022-08-01T06:49:20;4.00;;;2.42;;
70247;SDS011;57641;51.416;5.506;2022-08-01T06:51:45;6.85;;;3.55;;
70247;SDS011;57641;51.416;5.506;2022-08-01T06:54:11;5.40;;;3.42;;
70247;SDS011;57641;51.416;5.506;2022-08-01T06:56:36;4.30;;;3.22;;
70247;SDS011;57641;51.416;5.506;2022-08-01T06:59:01;5.65;;;3.67;;
70247;SDS011;57641;51.416;5.506;2022-08-01T07:01:27;5.47;;;3.17;;
70247;SDS011;57641;51.416;5.506;2022-08-01T07:03:53;5.85;;;3.13;;
70247;SDS011;57641;51.416;5.506;2022-08-01T07:06:19;7.40;;;3.47;;
70247;SDS011;57641;51.416;5.506;2022-08-01T07:08:46;5.13;;;2.53;;
70247;SDS011;57641;51.416;5.506;2022-08-01T07:11:11;3.03;;;2.22;;
70247;SDS011;57641;51.416;5.506;2022-08-01T07:13:36;5.13;;;2.58;;
70247;SDS011;57641;51.416;5.506;2022-08-01T07:16:02;5.30;;;2.70;;
70247;SDS011;57641;51.416;5.506;2022-08-01T07:18:27;7.55;;;3.15;;
70247;SDS011;57641;51.416;5.506;2022-08-01T07:20:53;3.78;;;2.28;;
70247;SDS011;57641;51.416;5.506;2022-08-01T07:23:18;3.42;;;2.20;;
70247;SDS011;57641;51.416;5.506;2022-08-01T07:25:44;2.88;;;2.10;;
70247;SDS011;57641;51.416;5.506;2022-08-01T07:28:09;3.13;;;2.22;;
70247;SDS011;57641;51.416;5.506;2022-08-01T07:30:35;1.75;;;1.45;;
70247;SDS011;57641;51.416;5.506;2022-08-01T07:33:00;2.45;;;2.22;;
70247;SDS011;57641;51.416;5.506;2022-08-01T07:35:26;3.50;;;1.70;;
70247;SDS011;57641;51.416;5.506;2022-08-01T07:37:52;3.80;;;1.90;;
70247;SDS011;57641;51.416;5.506;2022-08-01T07:40:18;5.95;;;2.00;;
70247;SDS011;57641;51.416;5.506;2022-08-01T07:42:44;2.75;;;2.00;;
70247;SDS011;57641;51.416;5.506;2022-08-01T07:45:10;4.40;;;2.00;;
70247;SDS011;57641;51.416;5.506;2022-08-01T07:47:36;2.75;;;1.95;;
70247;SDS011;57641;51.416;5.506;2022-08-01T07:50:02;3.03;;;1.95;;
70247;SDS011;57641;51.416;5.506;2022-08-01T07:52:29;3.10;;;2.00;;
70247;SDS011;57641;51.416;5.506;2022-08-01T07:54:56;2.10;;;1.65;;
70247;SDS011;57641;51.416;5.506;2022-08-01T07:57:22;3.53;;;1.73;;
70247;SDS011;57641;51.416;5.506;2022-08-01T07:59:49;3.03;;;1.75;;
70247;SDS011;57641;51.416;5.506;2022-08-01T08:02:15;2.58;;;1.63;;
70247;SDS011;57641;51.416;5.506;2022-08-01T08:04:40;1.40;;;1.00;;
70247;SDS011;57641;51.416;5.506;2022-08-01T08:07:06;1.60;;;1.13;;
70247;SDS011;57641;51.416;5.506;2022-08-01T08:09:31;1.10;;;0.98;;
70247;SDS011;57641;51.416;5.506;2022-08-01T08:11:57;1.95;;;1.10;;
70247;SDS011;57641;51.416;5.506;2022-08-01T08:14:22;4.80;;;1.65;;
70247;SDS011;57641;51.416;5.506;2022-08-01T08:16:49;2.13;;;1.30;;
70247;SDS011;57641;51.416;5.506;2022-08-01T08:19:15;1.35;;;1.10;;
70247;SDS011;57641;51.416;5.506;2022-08-01T08:21:40;1.58;;;1.00;;
70247;SDS011;57641;51.416;5.506;2022-08-01T08:24:07;1.42;;;1.10;;
70247;SDS011;57641;51.416;5.506;2022-08-01T08:26:46;1.13;;;0.98;;
70247;SDS011;57641;51.416;5.506;2022-08-01T08:29:13;2.05;;;1.20;;
70247;SDS011;57641;51.416;5.506;2022-08-01T08:31:38;2.53;;;1.20;;
70247;SDS011;57641;51.416;5.506;2022-08-01T08:34:04;1.70;;;1.10;;
70247;SDS011;57641;51.416;5.506;2022-08-01T08:36:30;2.10;;;1.60;;
70247;SDS011;57641;51.416;5.506;2022-08-01T08:38:56;1.70;;;1.30;;
70247;SDS011;57641;51.416;5.506;2022-08-01T08:41:22;1.40;;;1.30;;
70247;SDS011;57641;51.416;5.506;2022-08-01T08:43:48;2.33;;;1.30;;
70247;SDS011;57641;51.416;5.506;2022-08-01T08:46:13;2.30;;;2.10;;
70247;SDS011;57641;51.416;5.506;2022-08-01T08:48:40;3.03;;;2.28;;
70247;SDS011;57641;51.416;5.506;2022-08-01T08:51:07;3.67;;;2.25;;
70247;SDS011;57641;51.416;5.506;2022-08-01T08:53:36;2.90;;;2.17;;
70247;SDS011;57641;51.416;5.506;2022-08-01T08:56:08;3.00;;;2.20;;
70247;SDS011;57641;51.416;5.506;2022-08-01T08:58:34;3.15;;;2.35;;
70247;SDS011;57641;51.416;5.506;2022-08-01T09:01:04;2.30;;;2.10;;
70247;SDS011;57641;51.416;5.506;2022-08-01T09:03:32;3.00;;;2.22;;
70247;SDS011;57641;51.416;5.506;2022-08-01T09:05:58;3.13;;;2.25;;
70247;SDS011;57641;51.416;5.506;2022-08-01T09:08:23;2.67;;;2.10;;
70247;SDS011;57641;51.416;5.506;2022-08-01T09:10:49;1.77;;;1.67;;
70247;SDS011;57641;51.416;5.506;2022-08-01T09:13:14;2.67;;;1.90;;
70247;SDS011;57641;51.416;5.506;2022-08-01T09:15:47;2.55;;;2.25;;
70247;SDS011;57641;51.416;5.506;2022-08-01T09:23:35;2.53;;;2.33;;
70247;SDS011;57641;51.416;5.506;2022-08-01T09:26:11;2.35;;;1.98;;
70247;SDS011;57641;51.416;5.506;2022-08-01T09:28:39;2.05;;;1.65;;
70247;SDS011;57641;51.416;5.506;2022-08-01T09:31:06;1.50;;;1.33;;
70247;SDS011;57641;51.416;5.506;2022-08-01T09:36:19;1.67;;;1.40;;
70247;SDS011;57641;51.416;5.506;2022-08-01T09:38:45;1.80;;;1.25;;
70247;SDS011;57641;51.416;5.506;2022-08-01T09:41:11;1.75;;;1.30;;
70247;SDS011;57641;51.416;5.506;2022-08-01T09:43:36;1.60;;;1.42;;
70247;SDS011;57641;51.416;5.506;2022-08-01T09:46:09;2.13;;;1.60;;
70247;SDS011;57641;51.416;5.506;2022-08-01T09:48:38;1.85;;;1.75;;
70247;SDS011;57641;51.416;5.506;2022-08-01T09:51:27;2.00;;;1.80;;
70247;SDS011;57641;51.416;5.506;2022-08-01T09:53:53;2.73;;;1.83;;
70247;SDS011;57641;51.416;5.506;2022-08-01T09:56:20;1.88;;;1.40;;
70247;SDS011;57641;51.416;5.506;2022-08-01T10:04:04;4.63;;;1.98;;
70247;SDS011;57641;51.416;5.506;2022-08-01T10:06:32;2.42;;;2.15;;
70247;SDS011;57641;51.416;5.506;2022-08-01T10:08:57;2.55;;;2.00;;
70247;SDS011;57641;51.416;5.506;2022-08-01T10:11:23;2.00;;;1.80;;
70247;SDS011;57641;51.416;5.506;2022-08-01T10:13:49;1.95;;;1.52;;
70247;SDS011;57641;51.416;5.506;2022-08-01T10:16:14;1.50;;;1.40;;
70247;SDS011;57641;51.416;5.506;2022-08-01T10:18:41;4.20;;;2.10;;
70247;SDS011;57641;51.416;5.506;2022-08-01T10:21:07;2.20;;;2.00;;
70247;SDS011;57641;51.416;5.506;2022-08-01T10:23:34;3.45;;;1.85;;
70247;SDS011;57641;51.416;5.506;2022-08-01T10:26:00;1.85;;;1.70;;
70247;SDS011;57641;51.416;5.506;2022-08-01T10:28:28;1.50;;;1.40;;
70247;SDS011;57641;51.416;5.506;2022-08-01T10:30:56;1.40;;;1.25;;
70247;SDS011;57641;51.416;5.506;2022-08-01T10:33:23;1.50;;;1.40;;
70247;SDS011;57641;51.416;5.506;2022-08-01T10:35:50;1.15;;;0.93;;
70247;SDS011;57641;51.416;5.506;2022-08-01T10:38:16;1.08;;;1.08;;
70247;SDS011;57641;51.416;5.506;2022-08-01T10:40:42;1.27;;;1.17;;
70247;SDS011;57641;51.416;5.506;2022-08-01T10:43:15;1.40;;;1.30;;
70247;SDS011;57641;51.416;5.506;2022-08-01T10:45:45;2.35;;;1.38;;
70247;SDS011;57641;51.416;5.506;2022-08-01T10:51:01;1.48;;;1.38;;
70247;SDS011;57641;51.416;5.506;2022-08-01T10:53:28;1.30;;;1.20;;
70247;SDS011;57641;51.416;5.506;2022-08-01T10:58:20;2.63;;;1.20;;
70247;SDS011;57641;51.416;5.506;2022-08-01T11:03:40;1.42;;;0.90;;
70247;SDS011;57641;51.416;5.506;2022-08-01T11:06:24;6.13;;;1.15;;
70247;SDS011;57641;51.416;5.506;2022-08-01T11:08:53;0.90;;;0.80;;
70247;SDS011;57641;51.416;5.506;2022-08-01T11:11:20;2.33;;;1.00;;
70247;SDS011;57641;51.416;5.506;2022-08-01T11:14:07;1.90;;;1.40;;
70247;SDS011;57641;51.416;5.506;2022-08-01T11:16:35;3.17;;;1.23;;
70247;SDS011;57641;51.416;5.506;2022-08-01T11:19:02;1.35;;;1.25;;
70247;SDS011;57641;51.416;5.506;2022-08-01T11:24:13;2.10;;;1.40;;
70247;SDS011;57641;51.416;5.506;2022-08-01T11:26:39;2.28;;;1.65;;
70247;SDS011;57641;51.416;5.506;2022-08-01T11:29:11;2.45;;;1.50;;
70247;SDS011;57641;51.416;5.506;2022-08-01T11:31:39;3.22;;;1.40;;
70247;SDS011;57641;51.416;5.506;2022-08-01T11:34:04;3.33;;;1.63;;
70247;SDS011;57641;51.416;5.506;2022-08-01T11:36:30;3.20;;;1.25;;
70247;SDS011;57641;51.416;5.506;2022-08-01T11:41:25;3.95;;;1.50;;
70247;SDS011;57641;51.416;5.506;2022-08-01T11:49:23;9.43;;;2.08;;
70247;SDS011;57641;51.416;5.506;2022-08-01T11:51:59;1.85;;;1.45;;
70247;SDS011;57641;51.416;5.506;2022-08-01T11:54:27;1.90;;;1.05;;
70247;SDS011;57641;51.416;5.506;2022-08-01T11:56:55;1.90;;;1.17;;
70247;SDS011;57641;51.416;5.506;2022-08-01T11:59:22;2.80;;;1.15;;
70247;SDS011;57641;51.416;5.506;2022-08-01T12:01:48;2.78;;;1.30;;
70247;SDS011;57641;51.416;5.506;2022-08-01T12:04:14;1.17;;;0.90;;
70247;SDS011;57641;51.416;5.506;2022-08-01T12:06:39;2.28;;;1.02;;
70247;SDS011;57641;51.416;5.506;2022-08-01T12:09:15;1.77;;;0.90;;
70247;SDS011;57641;51.416;5.506;2022-08-01T12:11:41;4.00;;;1.23;;
70247;SDS011;57641;51.416;5.506;2022-08-01T12:14:07;1.10;;;1.00;;
70247;SDS011;57641;51.416;5.506;2022-08-01T12:16:32;2.42;;;1.00;;
70247;SDS011;57641;51.416;5.506;2022-08-01T12:18:58;2.88;;;1.10;;
70247;SDS011;57641;51.416;5.506;2022-08-01T12:21:24;2.67;;;1.10;;
70247;SDS011;57641;51.416;5.506;2022-08-01T12:24:10;1.08;;;0.90;;
70247;SDS011;57641;51.416;5.506;2022-08-01T12:26:39;3.47;;;1.20;;
70247;SDS011;57641;51.416;5.506;2022-08-01T12:29:07;2.90;;;1.15;;
70247;SDS011;57641;51.416;5.506;2022-08-01T12:31:33;2.17;;;1.00;;
70247;SDS011;57641;51.416;5.506;2022-08-01T12:34:24;0.98;;;0.85;;
70247;SDS011;57641;51.416;5.506;2022-08-01T12:36:52;3.22;;;0.95;;
70247;SDS011;57641;51.416;5.506;2022-08-01T12:39:29;1.52;;;1.10;;
70247;SDS011;57641;51.416;5.506;2022-08-01T12:41:55;2.85;;;1.40;;
70247;SDS011;57641;51.416;5.506;2022-08-01T12:44:21;1.27;;;1.10;;
70247;SDS011;57641;51.416;5.506;2022-08-01T12:46:47;2.60;;;1.27;;
70247;SDS011;57641;51.416;5.506;2022-08-01T12:49:12;5.32;;;1.30;;
70247;SDS011;57641;51.416;5.506;2022-08-01T12:51:38;2.30;;;1.45;;
70247;SDS011;57641;51.416;5.506;2022-08-01T12:54:04;2.13;;;1.20;;
70247;SDS011;57641;51.416;5.506;2022-08-01T12:56:33;1.92;;;1.05;;
70247;SDS011;57641;51.416;5.506;2022-08-01T12:58:59;2.17;;;1.10;;
70247;SDS011;57641;51.416;5.506;2022-08-01T13:01:25;4.60;;;1.38;;
70247;SDS011;57641;51.416;5.506;2022-08-01T13:04:00;2.13;;;1.10;;
70247;SDS011;57641;51.416;5.506;2022-08-01T13:06:28;1.83;;;1.10;;
70247;SDS011;57641;51.416;5.506;2022-08-01T13:08:55;1.50;;;1.02;;
70247;SDS011;57641;51.416;5.506;2022-08-01T13:11:38;3.40;;;1.05;;
70247;SDS011;57641;51.416;5.506;2022-08-01T13:14:05;2.97;;;1.20;;
70247;SDS011;57641;51.416;5.506;2022-08-01T13:16:32;1.85;;;1.00;;
70247;SDS011;57641;51.416;5.506;2022-08-01T13:18:57;2.30;;;1.25;;
70247;SDS011;57641;51.416;5.506;2022-08-01T13:21:24;1.38;;;1.10;;
70247;SDS011;57641;51.416;5.506;2022-08-01T13:26:47;1.45;;;1.00;;
70247;SDS011;57641;51.416;5.506;2022-08-01T13:29:18;3.90;;;1.45;;
70247;SDS011;57641;51.416;5.506;2022-08-01T13:31:45;1.90;;;1.23;;
70247;SDS011;57641;51.416;5.506;2022-08-01T13:34:12;1.50;;;1.40;;
70247;SDS011;57641;51.416;5.506;2022-08-01T13:36:38;3.33;;;1.50;;
70247;SDS011;57641;51.416;5.506;2022-08-01T13:39:04;2.17;;;1.27;;
70247;SDS011;57641;51.416;5.506;2022-08-01T13:41:49;2.38;;;1.55;;
70247;SDS011;57641;51.416;5.506;2022-08-01T13:44:15;1.80;;;1.45;;
70247;SDS011;57641;51.416;5.506;2022-08-01T13:46:41;3.35;;;1.70;;
70247;SDS011;57641;51.416;5.506;2022-08-01T13:49:09;3.30;;;1.55;;
70247;SDS011;57641;51.416;5.506;2022-08-01T13:51:36;4.45;;;1.50;;
70247;SDS011;57641;51.416;5.506;2022-08-01T13:54:02;4.18;;;1.35;;
70247;SDS011;57641;51.416;5.506;2022-08-01T13:56:28;2.65;;;1.60;;
70247;SDS011;57641;51.416;5.506;2022-08-01T13:58:54;2.38;;;1.65;;
70247;SDS011;57641;51.416;5.506;2022-08-01T14:01:20;1.50;;;1.30;;
70247;SDS011;57641;51.416;5.506;2022-08-01T14:03:46;1.67;;;1.30;;
70247;SDS011;57641;51.416;5.506;2022-08-01T14:06:13;3.35;;;1.83;;
70247;SDS011;57641;51.416;5.506;2022-08-01T14:08:41;3.17;;;1.45;;
70247;SDS011;57641;51.416;5.506;2022-08-01T14:11:09;2.22;;;1.73;;
70247;SDS011;57641;51.416;5.506;2022-08-01T14:13:35;3.33;;;1.48;;
70247;SDS011;57641;51.416;5.506;2022-08-01T14:16:03;3.72;;;1.52;;
70247;SDS011;57641;51.416;5.506;2022-08-01T14:18:32;4.85;;;2.13;;
70247;SDS011;57641;51.416;5.506;2022-08-01T14:20:58;2.50;;;1.75;;
70247;SDS011;57641;51.416;5.506;2022-08-01T14:23:24;2.88;;;2.00;;
70247;SDS011;57641;51.416;5.506;2022-08-01T14:25:50;2.50;;;1.58;;
70247;SDS011;57641;51.416;5.506;2022-08-01T14:28:16;2.83;;;1.60;;
70247;SDS011;57641;51.416;5.506;2022-08-01T14:30:41;3.88;;;1.80;;
70247;SDS011;57641;51.416;5.506;2022-08-01T14:33:07;3.97;;;1.85;;
70247;SDS011;57641;51.416;5.506;2022-08-01T14:35:33;4.13;;;1.98;;
70247;SDS011;57641;51.416;5.506;2022-08-01T14:37:59;3.25;;;1.70;;
70247;SDS011;57641;51.416;5.506;2022-08-01T14:40:25;2.53;;;1.88;;
70247;SDS011;57641;51.416;5.506;2022-08-01T14:42:50;2.50;;;1.63;;
70247;SDS011;57641;51.416;5.506;2022-08-01T14:45:16;3.40;;;1.75;;
70247;SDS011;57641;51.416;5.506;2022-08-01T14:47:42;1.50;;;1.17;;
70247;SDS011;57641;51.416;5.506;2022-08-01T14:50:09;4.28;;;1.67;;
70247;SDS011;57641;51.416;5.506;2022-08-01T14:52:36;3.17;;;1.45;;
70247;SDS011;57641;51.416;5.506;2022-08-01T14:55:03;4.95;;;1.70;;
70247;SDS011;57641;51.416;5.506;2022-08-01T14:57:30;3.30;;;1.50;;
70247;SDS011;57641;51.416;5.506;2022-08-01T14:59:55;2.38;;;1.40;;
70247;SDS011;57641;51.416;5.506;2022-08-01T15:02:21;4.78;;;1.67;;
70247;SDS011;57641;51.416;5.506;2022-08-01T15:04:47;3.33;;;1.52;;
70247;SDS011;57641;51.416;5.506;2022-08-01T15:07:13;3.30;;;1.52;;
70247;SDS011;57641;51.416;5.506;2022-08-01T15:09:40;3.25;;;1.70;;
70247;SDS011;57641;51.416;5.506;2022-08-01T15:12:06;2.95;;;1.40;;
70247;SDS011;57641;51.416;5.506;2022-08-01T15:14:32;2.75;;;1.40;;
70247;SDS011;57641;51.416;5.506;2022-08-01T15:17:23;3.95;;;1.60;;
70247;SDS011;57641;51.416;5.506;2022-08-01T15:19:55;3.72;;;1.70;;
70247;SDS011;57641;51.416;5.506;2022-08-01T15:22:23;5.03;;;1.65;;
70247;SDS011;57641;51.416;5.506;2022-08-01T15:24:51;4.32;;;1.50;;
70247;SDS011;57641;51.416;5.506;2022-08-01T15:27:17;6.88;;;1.70;;
70247;SDS011;57641;51.416;5.506;2022-08-01T15:29:43;2.83;;;1.52;;